Time;durP1;ratioP1;P1;durP2;ratioP2;P2;SDS_P1;SDS_P2;PMS_P1;PMS_P2;Temp;Humidity;BMP_temperature;BMP_pressure;BME280_temperature;BME280_humidity;BME280_pressure;Samples;Min_cycle;Max_cycle;Signal;HPM_P1;HPM_P2
2022/10/28 00:01:18;;;;;;;8.38;7.57;;;22.50;99.90;;;;;;6219005;28;89068;-63
2022/10/28 00:04:21;;;;;;;14.20;7.05;;;22.50;99.90;;;;;;6212423;28;90111;-64
2022/10/28 00:07:23;;;;;;;8.63;7.38;;;22.50;99.90;;;;;;6220946;28;88997;-64
2022/10/28 00:10:26;;;;;;;8.90;7.60;;;22.50;99.90;;;;;;6216544;28;88970;-64
2022/10/28 00:13:28;;;;;;;7.90;7.07;;;22.60;99.90;;;;;;6218654;28;88976;-64
2022/10/28 00:16:32;;;;;;;7.88;7.13;;;22.50;99.90;;;;;;6205764;28;87986;-63
2022/10/28 00:19:34;;;;;;;8.10;7.30;;;22.50;99.90;;;;;;6207025;28;89142;-64
2022/10/28 00:22:36;;;;;;;7.60;6.85;;;22.50;99.90;;;;;;6217262;28;89092;-63
2022/10/28 00:25:39;;;;;;;7.88;7.07;;;22.50;99.90;;;;;;6215519;28;88360;-64
2022/10/28 00:28:42;;;;;;;7.90;7.15;;;22.50;99.90;;;;;;6213591;28;89072;-63
2022/10/28 00:31:45;;;;;;;7.85;7.05;;;22.50;99.90;;;;;;6226643;28;89097;-63
2022/10/28 00:34:47;;;;;;;8.68;7.25;;;22.50;99.90;;;;;;6205412;28;90081;-64
2022/10/28 00:37:53;;;;;;;7.75;6.95;;;22.50;99.90;;;;;;6227371;28;89162;-64
2022/10/28 00:40:56;;;;;;;7.63;6.93;;;22.50;99.90;;;;;;6204401;28;88992;-63
2022/10/28 00:44:00;;;;;;;7.70;6.82;;;22.50;99.90;;;;;;6210499;28;89341;-64
2022/10/28 00:47:03;;;;;;;9.18;7.50;;;22.50;99.90;;;;;;6202754;28;87953;-64
2022/10/28 00:50:22;;;;;;;7.32;6.60;;;22.50;99.90;;;;;;6205630;28;89120;-64
2022/10/28 00:53:28;;;;;;;7.88;7.07;;;22.40;99.90;;;;;;6205483;28;88997;-64
2022/10/28 00:56:36;;;;;;;8.05;7.25;;;22.50;99.90;;;;;;6218309;28;87558;-64
2022/10/28 00:59:42;;;;;;;7.25;6.55;;;22.50;99.90;;;;;;6217651;28;89124;-63
2022/10/28 01:02:46;;;;;;;7.18;6.47;;;22.50;99.90;;;;;;6209261;28;88993;-63
2022/10/28 01:05:50;;;;;;;7.45;6.65;;;22.50;99.90;;;;;;6213134;28;90094;-64
2022/10/28 01:08:52;;;;;;;8.00;7.20;;;22.40;99.90;;;;;;6205304;28;89117;-64
2022/10/28 01:12:06;;;;;;;7.80;7.00;;;22.40;99.90;;;;;;6205956;28;89023;-64
2022/10/28 01:15:16;;;;;;;7.53;6.82;;;22.40;99.90;;;;;;6214301;28;89095;-64
2022/10/28 01:18:27;;;;;;;7.50;6.70;;;22.50;99.90;;;;;;6223538;28;89076;-63
2022/10/28 01:22:05;;;;;;;7.07;6.38;;;22.50;99.90;;;;;;6221984;28;90420;-64
2022/10/28 01:25:29;;;;;;;8.10;7.03;;;22.40;99.90;;;;;;6221143;28;90624;-63
2022/10/28 01:28:51;;;;;;;7.90;7.10;;;22.50;99.90;;;;;;6224096;28;88304;-63
2022/10/28 01:31:57;;;;;;;7.25;6.55;;;22.40;99.90;;;;;;6217574;28;89386;-63
2022/10/28 01:35:08;;;;;;;7.57;6.82;;;22.40;99.90;;;;;;6226987;28;88956;-64
2022/10/28 01:38:21;;;;;;;7.63;6.82;;;22.40;99.90;;;;;;6208525;28;90401;-64
2022/10/28 01:41:30;;;;;;;7.88;7.07;;;22.40;99.90;;;;;;6220077;28;89068;-64
2022/10/28 01:44:41;;;;;;;8.02;7.22;;;22.40;99.90;;;;;;6226127;28;89267;-64
2022/10/28 01:47:49;;;;;;;7.90;7.10;;;22.40;99.90;;;;;;6211232;28;89090;-63
2022/10/28 01:50:56;;;;;;;8.30;7.50;;;22.40;99.90;;;;;;6222927;28;89169;-64
2022/10/28 01:54:03;;;;;;;7.95;7.15;;;22.40;99.90;;;;;;6216548;28;89064;-64
2022/10/28 01:57:05;;;;;;;8.20;7.40;;;22.40;99.90;;;;;;6219240;28;89098;-64
2022/10/28 02:00:09;;;;;;;8.15;7.35;;;22.40;99.90;;;;;;6224624;28;88432;-64
2022/10/28 02:03:12;;;;;;;7.93;7.13;;;22.40;99.90;;;;;;6207429;28;89210;-63
2022/10/28 02:06:18;;;;;;;8.70;7.40;;;22.40;99.90;;;;;;6216167;28;89054;-64
2022/10/28 02:09:29;;;;;;;8.68;7.78;;;22.40;99.90;;;;;;6231886;28;90103;-64
2022/10/28 02:12:34;;;;;;;8.55;7.70;;;22.40;99.90;;;;;;6216645;28;89015;-64
2022/10/28 02:15:46;;;;;;;8.18;7.38;;;22.30;99.90;;;;;;6220206;28;89044;-64
2022/10/28 02:18:59;;;;;;;8.52;7.65;;;22.40;99.90;;;;;;6213244;28;89067;-64
2022/10/28 02:22:14;;;;;;;8.23;7.43;;;22.40;99.90;;;;;;6221214;28;90392;-64
2022/10/28 02:25:21;;;;;;;8.57;7.78;;;22.40;99.90;;;;;;6216588;28;89040;-64
2022/10/28 02:28:29;;;;;;;8.73;7.80;;;22.40;99.90;;;;;;6211153;28;89182;-64
2022/10/28 02:31:34;;;;;;;8.90;8.00;;;22.40;99.90;;;;;;6223521;28;88370;-64
2022/10/28 02:34:42;;;;;;;9.07;8.18;;;22.40;99.90;;;;;;6213704;28;87170;-64
2022/10/28 02:37:46;;;;;;;8.82;7.93;;;22.40;99.90;;;;;;6213745;28;89235;-64
2022/10/28 02:40:52;;;;;;;9.32;8.38;;;22.40;99.90;;;;;;6222056;28;91069;-64
2022/10/28 02:43:59;;;;;;;9.10;8.20;;;22.40;99.90;;;;;;6223636;28;89132;-64
2022/10/28 02:47:08;;;;;;;9.10;8.20;;;22.40;99.90;;;;;;6230829;28;89074;-64
2022/10/28 02:50:17;;;;;;;8.80;7.90;;;22.40;99.90;;;;;;6219927;28;89119;-64
2022/10/28 02:53:24;;;;;;;9.32;8.43;;;22.40;99.90;;;;;;6215926;28;89132;-64
2022/10/28 02:56:29;;;;;;;9.57;8.57;;;22.40;99.90;;;;;;6220165;28;89021;-64
2022/10/28 02:59:31;;;;;;;8.90;7.85;;;22.30;99.90;;;;;;6220881;28;89294;-64
2022/10/28 03:02:34;;;;;;;8.77;7.88;;;22.40;99.90;;;;;;6229911;28;88399;-64
2022/10/28 03:05:37;;;;;;;9.35;8.45;;;22.30;99.90;;;;;;6219442;28;89238;-64
2022/10/28 03:08:39;;;;;;;8.88;7.97;;;22.30;99.90;;;;;;6207939;28;89337;-64
2022/10/28 03:11:41;;;;;;;8.68;7.88;;;22.30;99.90;;;;;;6230295;28;89980;-64
2022/10/28 03:14:43;;;;;;;9.07;8.18;;;22.40;99.90;;;;;;6229710;28;89109;-64
2022/10/28 03:17:45;;;;;;;8.70;7.90;;;22.30;99.90;;;;;;6231767;28;89089;-64
2022/10/28 03:20:48;;;;;;;10.60;8.85;;;22.40;99.90;;;;;;6226331;28;88982;-64
2022/10/28 03:23:50;;;;;;;8.45;7.65;;;22.30;99.90;;;;;;6213171;28;88967;-64
2022/10/28 03:26:52;;;;;;;9.05;8.18;;;22.30;99.90;;;;;;6205093;28;89587;-64
2022/10/28 03:29:55;;;;;;;8.85;7.95;;;22.30;99.90;;;;;;6209305;28;89085;-63
2022/10/28 03:32:56;;;;;;;8.80;7.90;;;22.30;99.90;;;;;;6228647;28;88302;-64
2022/10/28 03:36:00;;;;;;;9.27;8.38;;;22.40;99.90;;;;;;6218662;28;89392;-64
2022/10/28 03:39:02;;;;;;;9.75;8.75;;;22.30;99.90;;;;;;6205446;28;89177;-63
2022/10/28 03:42:04;;;;;;;9.73;8.50;;;22.30;99.90;;;;;;6220763;28;89950;-63
2022/10/28 03:45:07;;;;;;;8.70;7.90;;;22.30;99.90;;;;;;6207831;28;89070;-63
2022/10/28 03:48:09;;;;;;;8.88;7.97;;;22.40;99.90;;;;;;6219646;28;90881;-63
2022/10/28 03:51:12;;;;;;;9.23;8.30;;;22.30;99.90;;;;;;6206228;28;89402;-64
2022/10/28 03:54:14;;;;;;;8.90;8.00;;;22.40;99.90;;;;;;6207329;28;89136;-64
2022/10/28 03:57:16;;;;;;;8.75;7.95;;;22.30;99.90;;;;;;6224285;28;89628;-64
2022/10/28 04:00:18;;;;;;;8.55;7.75;;;22.40;99.90;;;;;;6221331;28;89201;-64
2022/10/28 04:03:22;;;;;;;8.82;7.93;;;22.40;99.90;;;;;;6227496;28;88388;-64
2022/10/28 04:06:25;;;;;;;8.35;7.55;;;22.40;99.90;;;;;;6217923;28;89194;-64
2022/10/28 04:09:27;;;;;;;8.57;7.75;;;22.40;99.90;;;;;;6221706;28;89383;-64
2022/10/28 04:12:29;;;;;;;9.30;8.40;;;22.40;99.90;;;;;;6218098;28;90185;-64
2022/10/28 04:15:32;;;;;;;9.15;8.25;;;22.50;99.90;;;;;;6214706;28;89160;-63
2022/10/28 04:18:34;;;;;;;8.57;7.78;;;22.50;99.90;;;;;;6231123;28;89005;-64
2022/10/28 04:21:37;;;;;;;8.48;7.68;;;22.50;99.90;;;;;;6230210;28;87967;-64
2022/10/28 04:24:40;;;;;;;8.82;7.93;;;22.50;99.90;;;;;;6212174;28;89190;-64
2022/10/28 04:27:44;;;;;;;9.02;8.10;;;22.50;99.90;;;;;;6215458;28;89466;-64
2022/10/28 04:30:47;;;;;;;8.25;7.45;;;22.50;99.90;;;;;;6206394;28;89122;-64
2022/10/28 04:33:49;;;;;;;8.90;8.00;;;22.50;99.90;;;;;;6207152;28;88421;-64
2022/10/28 04:36:52;;;;;;;8.25;7.47;;;22.50;99.90;;;;;;6217309;28;89157;-64
2022/10/28 04:39:54;;;;;;;8.55;7.75;;;22.50;99.90;;;;;;6230023;28;89125;-64
2022/10/28 04:42:56;;;;;;;7.97;7.22;;;22.50;99.90;;;;;;6227491;28;88880;-63
2022/10/28 04:46:04;;;;;;;8.25;7.45;;;22.50;99.90;;;;;;6229325;28;89420;-64
2022/10/28 04:49:06;;;;;;;8.50;7.60;;;22.50;99.90;;;;;;6219676;28;89081;-64
2022/10/28 04:52:10;;;;;;;8.25;7.47;;;22.50;99.90;;;;;;6222836;28;89574;-64
2022/10/28 04:55:13;;;;;;;8.35;7.55;;;22.50;99.90;;;;;;6219298;28;89116;-64
2022/10/28 04:58:14;;;;;;;8.13;7.35;;;22.50;99.90;;;;;;6230631;28;88254;-64
2022/10/28 05:01:16;;;;;;;8.45;7.65;;;22.50;99.90;;;;;;6216397;28;89090;-64
2022/10/28 05:04:18;;;;;;;8.02;7.28;;;22.60;99.90;;;;;;6226094;28;88373;-64
2022/10/28 05:07:22;;;;;;;8.23;7.43;;;22.50;99.90;;;;;;6221212;28;89522;-64
2022/10/28 05:10:24;;;;;;;8.27;7.47;;;22.60;99.90;;;;;;6234209;28;89089;-64
2022/10/28 05:13:26;;;;;;;7.68;6.97;;;22.60;99.90;;;;;;6225427;28;90361;-64
2022/10/28 05:16:28;;;;;;;7.68;6.88;;;22.60;99.90;;;;;;6234247;28;89407;-64
2022/10/28 05:19:30;;;;;;;7.28;6.65;;;22.60;99.90;;;;;;6224552;28;89019;-64
2022/10/28 05:22:33;;;;;;;7.68;6.88;;;22.60;99.90;;;;;;6230868;28;89010;-64
2022/10/28 05:25:35;;;;;;;7.50;6.80;;;22.60;99.90;;;;;;6221990;28;89088;-64
2022/10/28 05:28:37;;;;;;;7.43;6.72;;;22.60;99.90;;;;;;6221134;28;89082;-63
2022/10/28 05:31:39;;;;;;;10.55;8.10;;;22.60;99.90;;;;;;6202973;28;89105;-64
2022/10/28 05:34:41;;;;;;;7.85;7.15;;;22.60;99.90;;;;;;6226589;28;88224;-64
2022/10/28 05:37:45;;;;;;;7.78;6.97;;;22.60;99.90;;;;;;6219438;28;89052;-64
2022/10/28 05:40:47;;;;;;;7.63;6.82;;;22.60;99.90;;;;;;6226147;28;89478;-64
2022/10/28 05:43:49;;;;;;;8.57;7.55;;;22.60;99.90;;;;;;6214261;28;89716;-64
2022/10/28 05:46:52;;;;;;;7.97;7.15;;;22.70;99.90;;;;;;6224350;28;89062;-64
2022/10/28 05:49:54;;;;;;;7.03;6.32;;;22.70;99.90;;;;;;6214118;28;89095;-64
2022/10/28 05:52:58;;;;;;;7.25;6.55;;;22.70;99.90;;;;;;6215984;28;89530;-65
2022/10/28 05:56:00;;;;;;;7.38;6.35;;;22.70;99.90;;;;;;6220317;28;87850;-64
2022/10/28 05:59:02;;;;;;;6.43;5.82;;;22.70;99.90;;;;;;6215248;28;87932;-64
2022/10/28 06:02:04;;;;;;;7.72;6.25;;;22.70;99.90;;;;;;6227828;28;89097;-64
2022/10/28 06:05:07;;;;;;;7.03;6.32;;;22.70;99.90;;;;;;6208519;28;88347;-64
2022/10/28 06:08:11;;;;;;;6.45;5.85;;;22.60;99.90;;;;;;6228602;28;89071;-64
2022/10/28 06:11:13;;;;;;;6.25;5.63;;;22.70;99.90;;;;;;6230059;28;89177;-64
2022/10/28 06:14:15;;;;;;;8.15;6.30;;;22.70;99.90;;;;;;6232516;28;89964;-64
2022/10/28 06:17:17;;;;;;;6.22;5.63;;;22.70;99.90;;;;;;6222258;28;89089;-64
2022/10/28 06:20:19;;;;;;;6.90;6.18;;;22.70;99.90;;;;;;6232086;28;88932;-65
2022/10/28 06:23:22;;;;;;;6.75;5.90;;;22.70;99.90;;;;;;6223804;28;88348;-64
2022/10/28 06:26:24;;;;;;;6.65;5.95;;;22.70;99.90;;;;;;6212499;28;88500;-65
2022/10/28 06:29:26;;;;;;;6.30;5.70;;;22.70;99.90;;;;;;6228857;28;89187;-64
2022/10/28 06:32:28;;;;;;;9.98;7.10;;;22.70;99.90;;;;;;6204909;28;89487;-65
2022/10/28 06:35:30;;;;;;;6.70;5.80;;;22.70;99.90;;;;;;6208716;28;88109;-64
2022/10/28 06:38:34;;;;;;;6.53;5.70;;;22.70;99.90;;;;;;6218626;28;89181;-64
2022/10/28 06:41:36;;;;;;;6.07;5.47;;;22.70;99.90;;;;;;6221166;28;89175;-64
2022/10/28 06:44:38;;;;;;;6.53;5.50;;;22.70;99.90;;;;;;6213109;28;90241;-65
2022/10/28 06:47:40;;;;;;;6.25;5.65;;;22.70;99.90;;;;;;6221716;28;89370;-64
2022/10/28 06:50:42;;;;;;;5.78;5.15;;;22.70;99.90;;;;;;6228655;28;89051;-64
2022/10/28 06:53:49;;;;;;;6.28;5.68;;;22.70;99.90;;;;;;6214841;28;89025;-64
2022/10/28 06:56:51;;;;;;;6.47;5.72;;;22.70;99.90;;;;;;6206514;28;87535;-64
2022/10/28 06:59:53;;;;;;;6.00;5.45;;;22.70;99.90;;;;;;6208116;28;89037;-64
2022/10/28 07:02:55;;;;;;;7.05;5.95;;;22.70;99.90;;;;;;6204531;28;89309;-64
2022/10/28 07:05:57;;;;;;;5.95;5.35;;;22.70;99.90;;;;;;6212175;28;88629;-64
2022/10/28 07:09:00;;;;;;;6.35;5.75;;;22.70;99.90;;;;;;6220226;28;89152;-64
2022/10/28 07:12:02;;;;;;;5.63;5.13;;;22.70;99.90;;;;;;6220304;28;89075;-64
2022/10/28 07:15:05;;;;;;;6.05;5.45;;;22.70;99.90;;;;;;6212649;28;89977;-64
2022/10/28 07:18:07;;;;;;;5.63;5.13;;;22.70;99.90;;;;;;6210838;28;89397;-64
2022/10/28 07:21:09;;;;;;;5.97;5.38;;;22.70;99.90;;;;;;6215580;28;88993;-65
2022/10/28 07:24:12;;;;;;;6.65;4.85;;;22.70;99.90;;;;;;6216012;28;89014;-64
2022/10/28 07:27:14;;;;;;;5.88;5.28;;;22.70;99.90;;;;;;6227367;28;89075;-64
2022/10/28 07:30:16;;;;;;;6.18;5.57;;;22.70;99.90;;;;;;6215133;28;89148;-64
2022/10/28 07:33:18;;;;;;;5.70;5.10;;;22.70;99.90;;;;;;6209226;28;88327;-65
2022/10/28 07:36:21;;;;;;;5.95;5.18;;;22.80;99.90;;;;;;6217466;28;88285;-64
2022/10/28 07:39:24;;;;;;;6.15;5.00;;;22.70;99.90;;;;;;6216614;28;87736;-64
2022/10/28 07:42:26;;;;;;;6.40;5.30;;;22.70;99.90;;;;;;6212185;28;89152;-64
2022/10/28 07:45:29;;;;;;;5.68;4.93;;;22.70;99.90;;;;;;6221393;28;90160;-64
2022/10/28 07:48:31;;;;;;;5.40;4.90;;;22.80;99.90;;;;;;6222126;28;89073;-64
2022/10/28 07:51:33;;;;;;;5.35;4.85;;;22.80;99.90;;;;;;6221273;28;89118;-64
2022/10/28 07:54:36;;;;;;;5.30;4.75;;;22.80;99.90;;;;;;6220961;28;89071;-64
2022/10/28 07:57:38;;;;;;;5.75;4.95;;;22.80;99.90;;;;;;6215101;28;89009;-64
2022/10/28 08:00:40;;;;;;;5.35;4.85;;;22.80;99.90;;;;;;6218057;28;89208;-64
2022/10/28 08:03:42;;;;;;;5.15;4.65;;;22.80;99.90;;;;;;6224224;28;89129;-64
2022/10/28 08:06:44;;;;;;;5.78;4.90;;;22.80;99.90;;;;;;6226487;28;88576;-64
2022/10/28 08:09:48;;;;;;;4.97;4.55;;;22.80;99.90;;;;;;6206332;28;89198;-64
2022/10/28 08:12:50;;;;;;;5.05;4.53;;;22.80;99.90;;;;;;6227612;28;88022;-64
2022/10/28 08:15:53;;;;;;;5.32;4.50;;;22.80;99.90;;;;;;6223528;28;89945;-64
2022/10/28 08:18:55;;;;;;;5.07;4.57;;;22.70;99.90;;;;;;6211653;28;89292;-64
2022/10/28 08:21:57;;;;;;;4.72;4.32;;;22.80;99.90;;;;;;6213301;28;89334;-64
2022/10/28 08:25:01;;;;;;;5.20;4.70;;;22.70;99.90;;;;;;6213390;28;89348;-64
2022/10/28 08:28:03;;;;;;;4.78;4.28;;;22.70;99.90;;;;;;6216630;28;88023;-64
2022/10/28 08:31:07;;;;;;;5.03;4.53;;;22.70;99.90;;;;;;6208347;28;89054;-64
2022/10/28 08:34:09;;;;;;;4.55;4.15;;;22.80;99.90;;;;;;6211023;28;89156;-64
2022/10/28 08:37:11;;;;;;;5.05;4.55;;;22.80;99.90;;;;;;6216236;28;88460;-64
2022/10/28 08:40:15;;;;;;;5.07;4.57;;;22.80;99.90;;;;;;6213335;28;89313;-64
2022/10/28 08:43:26;;;;;;;4.90;4.35;;;22.80;99.90;;;;;;6216134;28;88818;-64
2022/10/28 08:46:47;;;;;;;4.97;4.40;;;22.80;99.90;;;;;;6219171;28;89163;-64
2022/10/28 08:49:55;;;;;;;5.45;4.63;;;22.80;99.90;;;;;;6210528;28;89082;-64
2022/10/28 08:53:00;;;;;;;4.78;4.28;;;22.70;99.90;;;;;;6204446;28;87964;-64
2022/10/28 08:56:13;;;;;;;4.72;4.32;;;22.70;99.90;;;;;;6229047;28;87798;-64
2022/10/28 08:59:22;;;;;;;4.95;4.45;;;22.80;99.90;;;;;;6216719;28;87933;-64
2022/10/28 09:02:26;;;;;;;4.90;4.40;;;22.80;99.90;;;;;;6205958;28;90312;-64
2022/10/28 09:05:28;;;;;;;4.97;4.30;;;22.70;99.90;;;;;;6207168;28;89196;-64
2022/10/28 09:08:35;;;;;;;4.47;4.07;;;22.80;99.90;;;;;;6215977;28;87410;-64
2022/10/28 09:11:56;;;;;;;4.25;3.67;;;22.80;99.90;;;;;;6212957;28;87981;-64
2022/10/28 09:15:26;;;;;;;4.43;4.00;;;22.80;99.90;;;;;;6225425;28;89033;-64
2022/10/28 09:18:46;;;;;;;4.25;3.85;;;22.80;99.90;;;;;;6223223;28;89877;-63
2022/10/28 09:21:53;;;;;;;4.10;3.70;;;22.80;99.90;;;;;;6218308;28;89190;-64
2022/10/28 09:24:58;;;;;;;4.32;3.78;;;22.80;99.90;;;;;;6208178;28;89140;-64
2022/10/28 09:28:14;;;;;;;4.40;4.00;;;22.80;99.90;;;;;;6218841;28;89048;-63
2022/10/28 09:31:22;;;;;;;4.15;3.75;;;22.80;99.90;;;;;;6209535;28;89136;-64
2022/10/28 09:34:35;;;;;;;5.30;4.07;;;22.80;99.90;;;;;;6204315;28;88081;-64
2022/10/28 09:37:41;;;;;;;4.30;3.90;;;22.80;99.90;;;;;;6211241;28;88998;-64
2022/10/28 09:40:50;;;;;;;4.30;3.85;;;22.70;99.90;;;;;;6219437;28;88333;-64
2022/10/28 09:43:56;;;;;;;3.90;3.58;;;22.80;99.90;;;;;;6210766;28;87990;-64
2022/10/28 09:47:00;;;;;;;4.93;3.88;;;22.80;99.90;;;;;;6221314;28;89021;-64
2022/10/28 09:50:07;;;;;;;4.40;4.00;;;22.80;99.90;;;;;;6223377;28;89972;-64
2022/10/28 09:53:15;;;;;;;4.32;3.92;;;22.80;99.90;;;;;;6229834;28;88958;-64
2022/10/28 09:56:17;;;;;;;4.03;3.67;;;22.80;99.90;;;;;;6232934;28;89089;-64
2022/10/28 09:59:20;;;;;;;4.15;3.75;;;22.80;99.90;;;;;;6221170;28;87917;-64
2022/10/28 10:02:31;;;;;;;3.85;3.45;;;22.80;99.90;;;;;;6223671;28;87967;-64
2022/10/28 10:05:40;;;;;;;4.18;3.72;;;22.70;99.90;;;;;;6216050;28;89055;-64
2022/10/28 10:08:43;;;;;;;3.90;3.50;;;22.80;99.90;;;;;;6229390;28;89059;-63
2022/10/28 10:11:49;;;;;;;3.90;3.60;;;22.80;99.90;;;;;;6225048;28;87219;-63
2022/10/28 10:14:56;;;;;;;3.88;3.58;;;22.70;99.90;;;;;;6210584;28;89120;-64
2022/10/28 10:18:00;;;;;;;14.15;9.27;;;22.80;99.90;;;;;;6220276;28;89066;-65
2022/10/28 10:21:02;;;;;;;259.42;175.07;;;22.90;99.90;;;;;;6224873;28;90027;-66
2022/10/28 10:24:22;;;;;;;629.78;563.58;;;22.90;99.90;;;;;;6218048;28;89277;-65
2022/10/28 10:27:26;;;;;;;112.88;101.10;;;23.20;99.90;;;;;;6216055;28;87993;-66
2022/10/28 10:30:34;;;;;;;72.20;60.90;;;23.40;99.90;;;;;;6215198;28;88740;-66
2022/10/28 10:33:39;;;;;;;62.55;56.05;;;23.60;99.90;;;;;;6228121;28;88961;-65
2022/10/28 10:36:49;;;;;;;51.38;43.00;;;23.70;99.90;;;;;;6219777;28;89671;-64
2022/10/28 10:40:05;;;;;;;48.20;41.85;;;23.80;99.90;;;;;;6209819;28;89143;-65
2022/10/28 10:43:23;;;;;;;37.03;32.88;;;23.70;99.90;;;;;;6220890;28;88535;-65
2022/10/28 10:46:27;;;;;;;33.63;29.98;;;23.80;99.90;;;;;;6223893;28;89258;-65
2022/10/28 10:49:30;;;;;;;42.75;34.42;;;23.70;99.90;;;;;;6215090;28;89180;-66
2022/10/28 10:52:32;;;;;;;37.30;32.35;;;23.70;99.90;;;;;;6220693;28;88945;-68
2022/10/28 10:55:36;;;;;;;34.92;29.70;;;23.60;99.90;;;;;;6216181;28;88368;-67
2022/10/28 10:58:47;;;;;;;30.42;26.70;;;23.60;99.90;;;;;;6207651;28;89057;-67
2022/10/28 11:01:50;;;;;;;32.85;27.38;;;23.50;99.90;;;;;;6207885;28;89366;-67
2022/10/28 11:04:55;;;;;;;26.13;23.13;;;23.40;99.90;;;;;;6220318;28;88839;-67
2022/10/28 11:08:03;;;;;;;27.60;23.23;;;23.40;99.90;;;;;;6219735;28;89274;-68
2022/10/28 11:11:12;;;;;;;26.83;22.33;;;23.30;99.90;;;;;;6220865;28;87831;-68
2022/10/28 11:14:23;;;;;;;24.45;20.35;;;23.30;99.90;;;;;;6228471;28;88309;-67
2022/10/28 11:17:29;;;;;;;22.75;18.33;;;23.30;99.90;;;;;;6209801;28;88980;-68
2022/10/28 11:20:42;;;;;;;23.23;18.52;;;23.20;99.90;;;;;;6227079;28;87905;-68
2022/10/28 11:23:58;;;;;;;21.55;18.20;;;23.10;99.90;;;;;;6210562;28;90065;-68
2022/10/28 11:27:09;;;;;;;19.67;16.73;;;23.10;99.90;;;;;;6215910;28;89099;-68
2022/10/28 11:30:14;;;;;;;20.20;17.25;;;23.10;99.90;;;;;;6230829;28;89441;-68
2022/10/28 11:33:20;;;;;;;20.40;17.13;;;23.10;99.90;;;;;;6215874;28;89249;-68
2022/10/28 11:36:28;;;;;;;17.92;15.38;;;23.10;99.90;;;;;;6231012;28;89298;-68
2022/10/28 11:39:35;;;;;;;18.88;15.27;;;23.10;99.90;;;;;;6225249;28;89151;-68
2022/10/28 11:42:44;;;;;;;16.50;14.80;;;23.10;99.90;;;;;;6214389;28;89677;-68
2022/10/28 11:45:53;;;;;;;19.40;15.30;;;23.10;99.90;;;;;;6217375;28;87048;-68
2022/10/28 11:49:22;;;;;;;16.58;13.88;;;23.10;99.90;;;;;;6214988;28;89027;-68
2022/10/28 11:52:37;;;;;;;18.70;13.73;;;23.10;99.90;;;;;;6214058;28;89076;-68
2022/10/28 11:55:47;;;;;;;15.07;12.98;;;23.10;99.90;;;;;;6214006;28;90112;-68
2022/10/28 11:59:01;;;;;;;18.35;12.80;;;23.10;99.90;;;;;;6229813;28;88973;-68
2022/10/28 12:02:19;;;;;;;17.88;13.32;;;23.10;99.90;;;;;;6216715;28;90597;-68
2022/10/28 12:05:28;;;;;;;15.80;12.95;;;23.10;99.90;;;;;;6228572;28;88140;-68
2022/10/28 12:08:43;;;;;;;14.13;12.25;;;23.10;99.90;;;;;;6213490;28;87915;-68
2022/10/28 12:11:58;;;;;;;14.15;11.52;;;23.10;99.90;;;;;;6221214;28;89126;-68
2022/10/28 12:15:11;;;;;;;13.75;10.07;;;23.10;99.90;;;;;;6210985;28;89135;-68
2022/10/28 12:18:22;;;;;;;13.35;10.90;;;23.10;99.90;;;;;;6221390;28;87247;-68
2022/10/28 12:21:31;;;;;;;14.80;11.35;;;23.10;99.90;;;;;;6226216;28;88000;-68
2022/10/28 12:24:37;;;;;;;13.85;10.60;;;23.10;99.90;;;;;;6221646;28;89180;-68
2022/10/28 12:27:43;;;;;;;11.93;10.05;;;23.10;99.90;;;;;;6227012;28;90216;-67
2022/10/28 12:30:47;;;;;;;12.45;10.38;;;23.00;99.90;;;;;;6224903;28;88832;-68
2022/10/28 12:33:51;;;;;;;14.20;10.05;;;23.00;99.90;;;;;;6229215;28;89049;-68
2022/10/28 12:37:02;;;;;;;11.45;9.52;;;23.10;99.90;;;;;;6219423;28;89032;-68
2022/10/28 12:40:12;;;;;;;12.30;9.80;;;23.00;99.90;;;;;;6208667;28;89086;-68
2022/10/28 12:43:23;;;;;;;10.80;9.45;;;23.10;99.90;;;;;;6230178;28;89390;-67
2022/10/28 12:46:34;;;;;;;12.00;9.38;;;23.10;99.90;;;;;;6208902;28;89046;-68
2022/10/28 12:49:46;;;;;;;11.68;9.27;;;23.00;99.90;;;;;;6212917;28;88468;-68
2022/10/28 12:52:56;;;;;;;11.70;8.77;;;23.00;99.90;;;;;;6205713;28;89112;-67
2022/10/28 12:56:00;;;;;;;10.65;8.88;;;23.00;99.90;;;;;;6216366;28;89372;-68
2022/10/28 12:59:07;;;;;;;10.55;8.82;;;23.00;99.90;;;;;;6225188;28;90012;-68
2022/10/28 13:02:17;;;;;;;12.35;8.82;;;23.00;99.90;;;;;;6226012;28;89163;-68
2022/10/28 13:05:23;;;;;;;12.00;8.60;;;23.00;99.90;;;;;;6225922;28;88287;-68
2022/10/28 13:08:54;;;;;;;10.25;8.18;;;23.00;99.90;;;;;;6214664;28;88073;-68
2022/10/28 13:12:13;;;;;;;9.38;8.38;;;23.00;99.90;;;;;;6218940;28;89063;-68
2022/10/28 13:15:45;;;;;;;10.38;8.27;;;23.00;99.90;;;;;;6221887;28;89061;-67
2022/10/28 13:19:22;;;;;;;9.77;7.72;;;23.00;99.90;;;;;;6217398;28;89740;-68
2022/10/28 13:22:39;;;;;;;9.32;7.78;;;23.00;99.90;;;;;;6232707;28;88248;-67
2022/10/28 13:25:58;;;;;;;10.00;8.05;;;23.00;99.90;;;;;;6217420;28;88130;-68
2022/10/28 13:29:02;;;;;;;9.70;7.72;;;22.90;99.90;;;;;;6233010;28;89102;-67
2022/10/28 13:32:05;;;;;;;8.23;6.85;;;23.00;99.90;;;;;;6210864;28;90059;-68
2022/10/28 13:35:20;;;;;;;8.68;6.82;;;22.90;99.90;;;;;;6233906;28;91239;-67
2022/10/28 13:38:26;;;;;;;7.68;6.40;;;22.90;99.90;;;;;;6233820;28;89078;-68
2022/10/28 13:41:39;;;;;;;7.00;6.20;;;22.90;99.90;;;;;;6223172;28;89218;-68
2022/10/28 13:44:48;;;;;;;8.35;6.15;;;22.90;99.90;;;;;;6217065;28;89640;-68
2022/10/28 13:47:50;;;;;;;7.88;6.40;;;22.90;99.90;;;;;;6210440;28;90213;-68
2022/10/28 13:51:31;;;;;;;7.28;5.90;;;22.90;99.90;;;;;;6223594;28;89451;-68
2022/10/28 13:54:52;;;;;;;7.43;6.03;;;22.90;99.90;;;;;;6214254;28;88618;-68
2022/10/28 13:58:03;;;;;;;6.65;6.05;;;22.90;99.90;;;;;;6221977;28;89132;-68
2022/10/28 14:01:53;;;;;;;7.20;5.70;;;22.90;99.90;;;;;;6232729;28;89147;-68
2022/10/28 14:05:00;;;;;;;6.57;5.88;;;22.90;99.90;;;;;;6225722;28;89902;-67
2022/10/28 14:08:04;;;;;;;7.38;5.10;;;22.90;99.90;;;;;;6224997;28;89124;-68
2022/10/28 14:11:08;;;;;;;8.25;5.60;;;22.90;99.90;;;;;;6220460;28;89036;-68
2022/10/28 14:14:16;;;;;;;5.85;5.22;;;22.80;99.90;;;;;;6233053;28;89058;-68
2022/10/28 14:17:22;;;;;;;5.38;4.72;;;22.80;99.90;;;;;;6231315;28;88207;-68
2022/10/28 14:20:29;;;;;;;6.43;5.10;;;22.80;99.90;;;;;;6228025;28;89007;-67
2022/10/28 14:23:51;;;;;;;5.75;4.75;;;22.90;99.90;;;;;;6209704;28;87981;-68
2022/10/28 14:27:29;;;;;;;6.47;4.93;;;22.80;99.90;;;;;;6216982;28;89079;-68
2022/10/28 14:30:33;;;;;;;5.68;5.00;;;22.90;99.90;;;;;;6220933;28;89142;-68
2022/10/28 14:33:36;;;;;;;6.05;4.70;;;22.80;99.90;;;;;;6219578;28;89146;-68
2022/10/28 14:36:47;;;;;;;5.45;4.93;;;22.90;99.90;;;;;;6230224;28;90397;-68
2022/10/28 14:40:06;;;;;;;5.85;5.10;;;22.80;99.90;;;;;;6223436;28;89031;-68
2022/10/28 14:43:19;;;;;;;6.85;4.90;;;22.90;99.90;;;;;;6214673;28;89199;-68
2022/10/28 14:46:36;;;;;;;5.13;4.63;;;22.80;99.90;;;;;;6231630;28;88016;-68
2022/10/28 14:49:40;;;;;;;5.47;4.90;;;22.80;99.90;;;;;;6218138;28;89336;-68
2022/10/28 14:52:44;;;;;;;5.75;4.60;;;22.80;99.90;;;;;;6232967;28;88992;-68
2022/10/28 14:55:48;;;;;;;5.32;4.78;;;22.80;99.90;;;;;;6223084;28;89026;-68
2022/10/28 14:58:51;;;;;;;4.68;4.28;;;22.80;99.90;;;;;;6220978;28;87279;-68
2022/10/28 15:02:01;;;;;;;5.15;4.40;;;22.80;99.90;;;;;;6231569;28;87989;-68
2022/10/28 15:05:15;;;;;;;5.05;4.55;;;22.80;99.90;;;;;;6228978;28;87929;-68
2022/10/28 15:08:18;;;;;;;5.15;4.43;;;22.80;99.90;;;;;;6231113;28;88969;-68
2022/10/28 15:11:21;;;;;;;5.60;4.78;;;22.80;99.90;;;;;;6210573;28;89219;-68
2022/10/28 15:14:30;;;;;;;7.68;4.40;;;22.80;99.90;;;;;;6214480;28;89041;-68
2022/10/28 15:17:39;;;;;;;4.47;4.07;;;22.80;99.90;;;;;;6219381;28;89071;-68
2022/10/28 15:20:41;;;;;;;5.43;4.25;;;22.80;99.90;;;;;;6231867;28;89319;-68
2022/10/28 15:23:43;;;;;;;5.07;4.40;;;22.80;99.90;;;;;;6223545;28;89033;-67
2022/10/28 15:26:45;;;;;;;4.47;4.07;;;22.80;99.90;;;;;;6213088;28;89073;-68
2022/10/28 15:29:49;;;;;;;4.53;4.00;;;22.80;99.90;;;;;;6231058;28;88442;-68
2022/10/28 15:32:53;;;;;;;5.38;4.15;;;22.80;99.90;;;;;;6230990;28;89149;-68
2022/10/28 15:36:08;;;;;;;4.68;4.20;;;22.80;99.90;;;;;;6217304;28;89555;-68
2022/10/28 15:39:17;;;;;;;5.80;4.40;;;22.80;99.90;;;;;;6211463;28;90299;-68
2022/10/28 15:42:36;;;;;;;5.90;4.47;;;22.70;99.90;;;;;;6224409;28;89485;-68
2022/10/28 15:45:38;;;;;;;4.80;4.20;;;22.80;99.90;;;;;;6218122;28;89455;-67
2022/10/28 15:48:42;;;;;;;4.97;3.92;;;22.80;99.90;;;;;;6213991;28;89105;-67
2022/10/28 15:52:04;;;;;;;7.57;4.15;;;22.80;99.90;;;;;;6213816;28;89079;-67
2022/10/28 15:55:27;;;;;;;5.95;4.22;;;22.80;99.90;;;;;;6214768;28;89163;-67
2022/10/28 15:58:38;;;;;;;4.82;4.30;;;22.80;99.90;;;;;;6216645;28;89133;-68
2022/10/28 16:01:40;;;;;;;5.13;4.30;;;22.80;99.90;;;;;;6208125;28;89242;-67
2022/10/28 16:04:44;;;;;;;6.22;4.65;;;22.80;99.90;;;;;;6211338;28;89623;-67
2022/10/28 16:07:46;;;;;;;7.38;4.70;;;22.80;99.90;;;;;;6217500;28;89267;-67